Time;durP1;ratioP1;P1;durP2;ratioP2;P2;SDS_P1;SDS_P2;PMS_P1;PMS_P2;Temp;Humidity;BMP_temperature;BMP_pressure;BME280_temperature;BME280_humidity;BME280_pressure;Samples;Min_cycle;Max_cycle;Signal;HPM_P1;HPM_P2
2023/05/18 00:01:39;;;;;;;;;;;13.10;89.90;;;;;;6225853;22;19912;-94
2023/05/18 00:04:31;;;;;;;;;;;13.00;89.90;;;;;;6277512;22;19979;-95
2023/05/18 00:07:20;;;;;;;;;;;13.10;90.00;;;;;;6251073;22;20032;-94
2023/05/18 00:10:06;;;;;;;;;;;13.10;90.00;;;;;;6252255;22;19910;-94
2023/05/18 00:12:35;;;;;;;;;;;13.10;90.00;;;;;;6251341;22;19904;-95
2023/05/18 00:15:02;;;;;;;;;;;13.00;90.00;;;;;;6226565;22;19973;-95
2023/05/18 00:17:28;;;;;;;;;;;13.10;90.10;;;;;;6226563;22;19913;-94
2023/05/18 00:19:58;;;;;;;;;;;13.00;90.00;;;;;;6226263;22;19908;-94
2023/05/18 00:22:32;;;;;;;;;;;13.00;90.00;;;;;;6224831;22;19915;-94
2023/05/18 00:25:15;;;;;;;;;;;13.00;90.10;;;;;;6224538;22;19957;-95
2023/05/18 00:28:01;;;;;;;;;;;13.00;90.10;;;;;;6250866;22;19910;-95
2023/05/18 00:30:30;;;;;;;;;;;13.00;90.10;;;;;;6250274;22;19908;-94
2023/05/18 00:33:15;;;;;;;;;;;13.00;90.10;;;;;;6225717;22;20269;-94
2023/05/18 00:35:41;;;;;;;;;;;13.00;90.10;;;;;;6250332;22;19910;-94
2023/05/18 00:38:08;;;;;;;;;;;13.00;90.10;;;;;;6250945;22;20218;-94
2023/05/18 00:40:46;;;;;;;;;;;12.90;90.10;;;;;;6250517;22;19911;-94
2023/05/18 00:43:12;;;;;;;;;;;13.00;90.20;;;;;;6226242;22;19923;-95
2023/05/18 00:45:38;;;;;;;;;;;13.00;90.20;;;;;;6225639;22;19911;-94
2023/05/18 00:48:04;;;;;;;;;;;13.00;90.20;;;;;;6250908;22;19903;-94
2023/05/18 00:50:32;;;;;;;;;;;13.00;90.20;;;;;;6250287;22;19904;-93
2023/05/18 00:53:02;;;;;;;;;;;13.00;90.20;;;;;;6223606;22;19912;-93
2023/05/18 00:55:28;;;;;;;;;;;12.90;90.20;;;;;;6249920;22;19957;-93
2023/05/18 00:57:55;;;;;;;;;;;12.90;90.20;;;;;;6225369;22;19907;-93
2023/05/18 01:00:22;;;;;;;;;;;12.90;90.20;;;;;;6224965;22;19907;-94
2023/05/18 01:02:56;;;;;;;;;;;12.90;90.10;;;;;;6249582;22;19907;-94
2023/05/18 01:05:27;;;;;;;;;;;12.90;90.30;;;;;;6224827;22;19915;-94
2023/05/18 01:07:55;;;;;;;;;;;12.90;90.20;;;;;;6225171;22;20530;-94
2023/05/18 01:10:21;;;;;;;;;;;12.90;90.20;;;;;;6250260;22;19904;-95
2023/05/18 01:13:00;;;;;;;;;;;12.90;90.20;;;;;;6224870;22;19915;-94
2023/05/18 01:15:31;;;;;;;;;;;12.90;90.20;;;;;;6225182;22;19953;-94
2023/05/18 01:18:03;;;;;;;;;;;12.90;90.20;;;;;;6250305;22;20291;-94
2023/05/18 01:20:44;;;;;;;;;;;12.90;90.20;;;;;;6250225;22;19910;-94
2023/05/18 01:23:29;;;;;;;;;;;12.90;90.20;;;;;;6250118;22;19907;-93
2023/05/18 01:25:55;;;;;;;;;;;12.90;90.30;;;;;;6250802;22;20436;-94
2023/05/18 01:28:40;;;;;;;;;;;12.90;90.20;;;;;;6249996;22;19908;-94
2023/05/18 01:31:06;;;;;;;;;;;12.90;90.10;;;;;;6248625;22;19986;-94
2023/05/18 01:33:32;;;;;;;;;;;12.90;90.20;;;;;;6249467;22;19974;-94
2023/05/18 01:35:59;;;;;;;;;;;12.90;90.20;;;;;;6224590;22;19911;-93
2023/05/18 01:38:27;;;;;;;;;;;12.90;90.20;;;;;;6224095;22;19915;-93
2023/05/18 01:41:12;;;;;;;;;;;12.90;90.20;;;;;;6249912;22;19914;-94
2023/05/18 01:43:43;;;;;;;;;;;12.80;90.10;;;;;;6249214;22;20383;-94
2023/05/18 01:46:16;;;;;;;;;;;12.80;90.10;;;;;;6250346;22;19911;-93
2023/05/18 01:48:48;;;;;;;;;;;12.80;90.10;;;;;;6249540;22;20023;-94
2023/05/18 01:51:16;;;;;;;;;;;12.80;90.10;;;;;;6250178;22;19904;-93
2023/05/18 01:53:54;;;;;;;;;;;12.80;90.10;;;;;;6250017;22;19903;-95
2023/05/18 01:56:20;;;;;;;;;;;12.80;90.10;;;;;;6225588;22;19942;-94
2023/05/18 01:58:46;;;;;;;;;;;12.80;90.10;;;;;;6249891;22;19903;-94
2023/05/18 02:01:14;;;;;;;;;;;12.80;90.10;;;;;;6250269;22;19903;-94
2023/05/18 02:03:42;;;;;;;;;;;12.80;90.10;;;;;;6248484;22;19945;-92
2023/05/18 02:06:08;;;;;;;;;;;12.80;90.10;;;;;;6224834;22;19907;-93
2023/05/18 02:08:34;;;;;;;;;;;12.80;90.00;;;;;;6249860;22;19914;-93
2023/05/18 02:11:00;;;;;;;;;;;12.80;90.10;;;;;;6223687;22;19907;-93
2023/05/18 02:13:26;;;;;;;;;;;12.80;90.10;;;;;;6223971;22;19935;-94
2023/05/18 02:15:52;;;;;;;;;;;12.80;90.10;;;;;;6224651;22;19915;-92
2023/05/18 02:18:18;;;;;;;;;;;12.80;90.10;;;;;;6224090;22;19907;-94
2023/05/18 02:20:47;;;;;;;;;;;12.80;90.10;;;;;;6249405;22;19985;-93
2023/05/18 02:23:14;;;;;;;;;;;12.80;90.10;;;;;;6249827;22;19934;-94
2023/05/18 02:25:43;;;;;;;;;;;12.80;90.00;;;;;;6250033;22;20377;-92
2023/05/18 02:28:08;;;;;;;;;;;12.80;90.10;;;;;;6224841;22;19930;-93
2023/05/18 02:30:36;;;;;;;;;;;12.80;90.10;;;;;;6224274;22;19907;-94
2023/05/18 02:33:03;;;;;;;;;;;12.80;90.00;;;;;;6224540;22;20401;-93
2023/05/18 02:35:28;;;;;;;;;;;12.80;90.00;;;;;;6246993;22;19904;-94
2023/05/18 02:37:54;;;;;;;;;;;12.80;90.10;;;;;;6248946;22;20296;-94
2023/05/18 02:40:21;;;;;;;;;;;12.80;90.00;;;;;;6249301;22;19909;-93
2023/05/18 02:42:46;;;;;;;;;;;12.70;90.00;;;;;;6249132;22;19911;-93
2023/05/18 02:45:12;;;;;;;;;;;12.80;90.00;;;;;;6249830;22;19907;-94
2023/05/18 02:47:38;;;;;;;;;;;12.70;90.00;;;;;;6225500;22;19956;-93
2023/05/18 02:50:04;;;;;;;;;;;12.70;90.00;;;;;;6251017;22;19910;-94
2023/05/18 02:52:50;;;;;;;;;;;12.70;90.00;;;;;;6225432;22;19907;-94
2023/05/18 02:55:16;;;;;;;;;;;12.80;90.00;;;;;;6250976;22;19946;-93
2023/05/18 02:57:45;;;;;;;;;;;12.70;89.90;;;;;;6251534;22;20305;-93
2023/05/18 03:00:15;;;;;;;;;;;12.70;89.70;;;;;;6250549;22;19942;-94
2023/05/18 03:02:43;;;;;;;;;;;12.70;89.60;;;;;;6250259;22;20140;-94
2023/05/18 03:05:09;;;;;;;;;;;12.70;89.70;;;;;;6249808;22;20313;-94
2023/05/18 03:07:35;;;;;;;;;;;12.70;89.70;;;;;;6223775;22;19914;-92
2023/05/18 03:10:03;;;;;;;;;;;12.70;89.60;;;;;;6249822;22;19907;-93
2023/05/18 03:12:29;;;;;;;;;;;12.70;89.70;;;;;;6248828;22;19949;-93
2023/05/18 03:14:55;;;;;;;;;;;12.70;89.60;;;;;;6223172;22;19911;-93
2023/05/18 03:17:21;;;;;;;;;;;12.70;89.40;;;;;;6224718;22;19907;-94
2023/05/18 03:19:57;;;;;;;;;;;12.70;89.30;;;;;;6249292;22;19907;-95
2023/05/18 03:22:23;;;;;;;;;;;12.70;89.50;;;;;;6223813;22;19911;-93
2023/05/18 03:24:50;;;;;;;;;;;12.60;89.40;;;;;;6249739;22;19907;-93
2023/05/18 03:27:17;;;;;;;;;;;12.70;89.50;;;;;;6251812;22;20271;-93
2023/05/18 03:29:43;;;;;;;;;;;12.70;89.40;;;;;;6251023;22;19903;-94
2023/05/18 03:32:09;;;;;;;;;;;12.70;89.30;;;;;;6226180;22;19990;-94
2023/05/18 03:34:35;;;;;;;;;;;12.70;89.30;;;;;;6251541;22;19946;-95
2023/05/18 03:37:01;;;;;;;;;;;12.70;89.40;;;;;;6251282;22;19903;-93
2023/05/18 03:39:27;;;;;;;;;;;12.70;89.40;;;;;;6251584;22;19961;-93
2023/05/18 03:41:53;;;;;;;;;;;12.60;89.30;;;;;;6251105;22;19915;-94
2023/05/18 03:44:21;;;;;;;;;;;12.70;89.40;;;;;;6225904;22;19907;-95
2023/05/18 03:46:47;;;;;;;;;;;12.70;89.30;;;;;;6226047;22;19914;-93
2023/05/18 03:49:13;;;;;;;;;;;12.70;89.30;;;;;;6251374;22;19994;-93
2023/05/18 03:51:39;;;;;;;;;;;12.60;89.20;;;;;;6250748;22;19903;-93
2023/05/18 03:54:05;;;;;;;;;;;12.60;89.20;;;;;;6225288;22;20373;-95
2023/05/18 03:56:51;;;;;;;;;;;12.70;89.30;;;;;;6251047;22;19927;-94
2023/05/18 03:59:17;;;;;;;;;;;12.60;89.10;;;;;;6250619;22;20106;-93
2023/05/18 04:01:43;;;;;;;;;;;12.70;89.00;;;;;;6250289;22;19907;-93
2023/05/18 04:04:16;;;;;;;;;;;12.60;89.00;;;;;;6250120;22;19904;-93
2023/05/18 04:06:52;;;;;;;;;;;12.60;89.10;;;;;;6227062;22;19915;-93
2023/05/18 04:09:18;;;;;;;;;;;12.60;89.10;;;;;;6226563;22;20313;-94
2023/05/18 04:11:59;;;;;;;;;;;12.60;88.90;;;;;;6251582;22;20095;-94
2023/05/18 04:14:27;;;;;;;;;;;12.60;89.00;;;;;;6250156;22;19982;-94
2023/05/18 04:16:53;;;;;;;;;;;12.60;89.00;;;;;;6225206;22;19986;-93
2023/05/18 04:19:20;;;;;;;;;;;12.60;89.00;;;;;;6250872;22;19910;-94
2023/05/18 04:21:47;;;;;;;;;;;12.60;88.80;;;;;;6224989;22;20321;-94
2023/05/18 04:24:34;;;;;;;;;;;12.60;88.90;;;;;;6225356;22;19911;-94
2023/05/18 04:27:01;;;;;;;;;;;12.60;88.80;;;;;;6251041;22;19909;-94
2023/05/18 04:29:28;;;;;;;;;;;12.60;88.80;;;;;;6224979;22;19911;-94
2023/05/18 04:31:58;;;;;;;;;;;12.60;88.50;;;;;;6224652;22;19911;-94
2023/05/18 04:34:25;;;;;;;;;;;12.60;88.30;;;;;;6225777;22;19907;-95
2023/05/18 04:36:53;;;;;;;;;;;12.60;88.60;;;;;;6225026;22;19908;-94
2023/05/18 04:39:40;;;;;;;;;;;12.60;88.50;;;;;;6251068;22;19974;-94
2023/05/18 04:42:06;;;;;;;;;;;12.60;88.50;;;;;;6250243;22;20335;-94
2023/05/18 04:44:35;;;;;;;;;;;12.60;88.60;;;;;;6250508;22;19931;-93
2023/05/18 04:47:03;;;;;;;;;;;12.60;88.60;;;;;;6249959;22;19903;-94
2023/05/18 04:49:31;;;;;;;;;;;12.60;88.50;;;;;;6250650;22;19926;-94
2023/05/18 04:52:05;;;;;;;;;;;12.60;88.50;;;;;;6249955;22;19914;-95
2023/05/18 04:54:30;;;;;;;;;;;12.60;88.40;;;;;;6226051;22;19908;-94
2023/05/18 04:56:57;;;;;;;;;;;12.60;88.30;;;;;;6249957;22;19903;-95
2023/05/18 04:59:25;;;;;;;;;;;12.60;88.20;;;;;;6225328;22;19934;-95
2023/05/18 05:01:52;;;;;;;;;;;12.70;88.30;;;;;;6225674;22;20325;-92
2023/05/18 05:04:18;;;;;;;;;;;12.70;88.30;;;;;;6250386;22;19907;-94
2023/05/18 05:06:44;;;;;;;;;;;12.70;88.20;;;;;;6250472;22;20032;-94
2023/05/18 05:09:14;;;;;;;;;;;12.70;88.10;;;;;;6249647;22;19911;-93
2023/05/18 05:11:40;;;;;;;;;;;12.70;88.00;;;;;;6226184;22;19907;-93
2023/05/18 05:14:13;;;;;;;;;;;12.80;88.00;;;;;;6250352;22;19903;-94
2023/05/18 05:16:40;;;;;;;;;;;12.80;87.80;;;;;;6225033;22;20223;-93
2023/05/18 05:19:16;;;;;;;;;;;12.80;87.60;;;;;;6250483;22;19910;-95
2023/05/18 05:21:43;;;;;;;;;;;12.80;87.50;;;;;;6226295;22;19957;-95
2023/05/18 05:24:08;;;;;;;;;;;12.80;87.40;;;;;;6225125;22;19907;-93
2023/05/18 05:26:34;;;;;;;;;;;12.80;87.30;;;;;;6250720;22;19910;-93
2023/05/18 05:29:20;;;;;;;;;;;12.80;87.20;;;;;;6250219;22;20224;-95
2023/05/18 05:31:46;;;;;;;;;;;12.90;87.10;;;;;;6250001;22;19910;-94
2023/05/18 05:34:16;;;;;;;;;;;12.90;87.10;;;;;;6224893;22;19908;-95
2023/05/18 05:36:42;;;;;;;;;;;12.90;86.90;;;;;;6224788;22;19957;-95
2023/05/18 05:39:12;;;;;;;;;;;12.90;86.80;;;;;;6224863;22;19911;-95
2023/05/18 05:41:38;;;;;;;;;;;13.00;86.60;;;;;;6225405;22;19926;-94
2023/05/18 05:44:10;;;;;;;;;;;13.00;86.50;;;;;;6250382;22;19911;-95
2023/05/18 05:46:40;;;;;;;;;;;13.20;86.60;;;;;;6224813;22;19915;-95
2023/05/18 05:49:07;;;;;;;;;;;13.10;86.50;;;;;;6224389;22;19914;-94
2023/05/18 05:51:52;;;;;;;;;;;13.10;86.40;;;;;;6224793;22;19930;-95
2023/05/18 05:54:26;;;;;;;;;;;13.20;86.30;;;;;;6248376;22;19907;-96
2023/05/18 05:56:54;;;;;;;;;;;13.20;85.80;;;;;;6249901;22;19998;-94
2023/05/18 05:59:22;;;;;;;;;;;13.20;85.90;;;;;;6249894;22;19911;-94
2023/05/18 06:01:48;;;;;;;;;;;13.30;85.40;;;;;;6225507;22;19918;-94
2023/05/18 06:04:14;;;;;;;;;;;13.30;85.00;;;;;;6223559;22;20392;-94
2023/05/18 06:06:41;;;;;;;;;;;13.40;84.60;;;;;;6250639;22;19977;-94
2023/05/18 06:09:06;;;;;;;;;;;13.40;84.20;;;;;;6222930;22;20305;-95
2023/05/18 06:11:36;;;;;;;;;;;13.40;83.70;;;;;;6250605;22;19903;-94
2023/05/18 06:14:03;;;;;;;;;;;13.50;83.60;;;;;;6224884;22;19914;-96
2023/05/18 06:16:49;;;;;;;;;;;13.60;83.40;;;;;;6224754;22;19907;-96
2023/05/18 06:19:23;;;;;;;;;;;13.60;83.00;;;;;;6249397;22;19904;-96
2023/05/18 06:21:53;;;;;;;;;;;13.60;82.80;;;;;;6225006;22;21795;-95
2023/05/18 06:24:22;;;;;;;;;;;13.60;82.70;;;;;;6224638;22;19907;-94
2023/05/18 06:26:53;;;;;;;;;;;13.70;82.60;;;;;;6225112;22;20313;-96
2023/05/18 06:29:20;;;;;;;;;;;13.70;82.40;;;;;;6226044;22;20394;-93
2023/05/18 06:31:49;;;;;;;;;;;13.80;82.20;;;;;;6251436;22;20050;-95
2023/05/18 06:34:14;;;;;;;;;;;13.80;81.90;;;;;;6225368;22;19913;-94
2023/05/18 06:36:40;;;;;;;;;;;13.80;81.80;;;;;;6250876;22;19981;-94
2023/05/18 06:39:08;;;;;;;;;;;13.90;81.60;;;;;;6224558;22;19915;-94
2023/05/18 06:41:34;;;;;;;;;;;13.90;81.40;;;;;;6224324;22;19947;-95
2023/05/18 06:44:01;;;;;;;;;;;14.00;81.30;;;;;;6250102;22;19910;-95
2023/05/18 06:46:29;;;;;;;;;;;14.00;81.20;;;;;;6224617;22;19914;-94
2023/05/18 06:48:54;;;;;;;;;;;14.00;80.90;;;;;;6224160;22;19911;-95
2023/05/18 06:51:20;;;;;;;;;;;14.10;81.00;;;;;;6250101;22;20557;-95
2023/05/18 06:53:47;;;;;;;;;;;14.10;80.90;;;;;;6250037;22;19912;-96
2023/05/18 06:56:13;;;;;;;;;;;14.20;80.70;;;;;;6223393;22;19908;-95
2023/05/18 06:58:40;;;;;;;;;;;14.20;80.50;;;;;;6224433;22;19915;-96
2023/05/18 07:01:09;;;;;;;;;;;14.20;80.40;;;;;;6251725;22;19938;-96
2023/05/18 07:03:34;;;;;;;;;;;14.30;80.40;;;;;;6227221;22;19911;-95
2023/05/18 07:06:20;;;;;;;;;;;14.30;80.30;;;;;;6226062;22;19915;-96
2023/05/18 07:08:51;;;;;;;;;;;14.40;80.10;;;;;;6278241;22;20321;-96
2023/05/18 07:11:16;;;;;;;;;;;14.40;79.90;;;;;;6226992;22;20205;-94
2023/05/18 07:13:43;;;;;;;;;;;14.50;79.90;;;;;;6251317;22;19903;-96
2023/05/18 07:16:11;;;;;;;;;;;14.50;79.90;;;;;;6251939;22;19935;-95
2023/05/18 07:18:37;;;;;;;;;;;14.50;79.60;;;;;;6226619;22;20317;-95
2023/05/18 07:21:03;;;;;;;;;;;14.50;79.40;;;;;;6226901;22;19914;-96
2023/05/18 07:23:28;;;;;;;;;;;14.60;79.30;;;;;;6251793;22;19950;-95
2023/05/18 07:25:55;;;;;;;;;;;14.60;79.30;;;;;;6226698;22;20271;-95
2023/05/18 07:28:40;;;;;;;;;;;14.70;79.20;;;;;;6226175;22;19914;-96
2023/05/18 07:31:06;;;;;;;;;;;14.70;79.20;;;;;;6251979;22;19910;-94
2023/05/18 07:33:32;;;;;;;;;;;14.70;78.90;;;;;;6252052;22;19903;-96
2023/05/18 07:36:05;;;;;;;;;;;14.70;78.90;;;;;;6251112;22;19956;-96
2023/05/18 07:38:33;;;;;;;;;;;14.80;79.00;;;;;;6225799;22;19978;-96
2023/05/18 07:40:59;;;;;;;;;;;14.80;78.90;;;;;;6251315;22;20318;-95
2023/05/18 07:43:27;;;;;;;;;;;14.90;78.80;;;;;;6251281;22;19930;-95
2023/05/18 07:45:53;;;;;;;;;;;14.90;78.60;;;;;;6226450;22;19907;-95
2023/05/18 07:48:24;;;;;;;;;;;15.00;78.40;;;;;;6225919;22;19914;-95
2023/05/18 07:50:58;;;;;;;;;;;15.00;78.30;;;;;;6226821;22;20228;-96
2023/05/18 07:53:46;;;;;;;;;;;15.00;78.30;;;;;;6226086;22;19954;-96
2023/05/18 07:56:13;;;;;;;;;;;15.00;78.20;;;;;;6251253;22;20309;-95
2023/05/18 07:58:59;;;;;;;;;;;15.10;78.00;;;;;;6227122;22;19961;-96
2023/05/18 08:01:44;;;;;;;;;;;15.10;78.00;;;;;;6251854;22;19903;-96
2023/05/18 08:04:11;;;;;;;;;;;15.10;77.80;;;;;;6252588;22;19908;-96
2023/05/18 08:06:40;;;;;;;;;;;15.20;77.80;;;;;;6227220;22;20335;-96
2023/05/18 08:09:27;;;;;;;;;;;15.20;77.70;;;;;;6252534;22;19918;-96
2023/05/18 08:12:15;;;;;;;;;;;15.20;78.40;;;;;;6251681;22;20312;-96
2023/05/18 08:14:44;;;;;;;;;;;15.30;77.60;;;;;;6279446;22;19923;-96
2023/05/18 08:17:11;;;;;;;;;;;15.30;77.50;;;;;;6226300;22;19986;-96
2023/05/18 08:19:56;;;;;;;;;;;15.30;77.50;;;;;;6226509;22;19908;-96
2023/05/18 08:22:42;;;;;;;;;;;15.30;77.30;;;;;;6252696;22;20297;-96
2023/05/18 08:25:09;;;;;;;;;;;15.40;77.30;;;;;;6253249;22;19907;-94
2023/05/18 08:27:50;;;;;;;;;;;15.40;77.20;;;;;;6254609;22;19989;-96
2023/05/18 08:30:38;;;;;;;;;;;15.50;77.10;;;;;;6257611;22;19910;-96
2023/05/18 08:33:24;;;;;;;;;;;15.40;76.90;;;;;;6259225;22;20325;-96
2023/05/18 08:36:10;;;;;;;;;;;15.40;76.60;;;;;;6259573;22;19910;-96
2023/05/18 08:38:39;;;;;;;;;;;15.50;76.70;;;;;;6258057;22;19903;-96
2023/05/18 08:41:33;;;;;;;;;;;15.50;76.70;;;;;;6259068;22;19904;-96
2023/05/18 08:44:25;;;;;;;;;;;15.50;76.60;;;;;;6107731;23;19909;-96
2023/05/18 08:47:13;;;;;;;;;;;15.50;76.70;;;;;;6103948;23;19929;-96
2023/05/18 08:49:41;;;;;;;;;;;15.60;76.60;;;;;;6131933;23;19905;-95
2023/05/18 08:52:16;;;;;;;;;;;15.50;76.50;;;;;;6110410;23;19909;-96
2023/05/18 08:55:06;;;;;;;;;;;15.50;76.50;;;;;;6131062;23;19905;-96
2023/05/18 08:57:38;;;;;;;;;;;15.60;76.40;;;;;;6132490;23;19912;-96
2023/05/18 09:00:32;;;;;;;;;;;15.60;76.40;;;;;;6085169;23;19921;-96
2023/05/18 09:03:03;;;;;;;;;;;15.60;76.10;;;;;;6109212;23;19909;-96
2023/05/18 09:05:49;;;;;;;;;;;15.60;76.30;;;;;;6106217;23;19924;-96
2023/05/18 09:08:38;;;;;;;;;;;15.60;75.90;;;;;;6135354;23;19889;-96
2023/05/18 09:11:13;;;;;;;;;;;15.60;75.80;;;;;;6129238;23;19912;-96
2023/05/18 09:14:00;;;;;;;;;;;15.70;75.80;;;;;;6111633;23;19909;-96
2023/05/18 09:16:56;;;;;;;;;;;15.60;75.80;;;;;;6133943;23;19909;-96
2023/05/18 09:19:47;;;;;;;;;;;15.70;75.60;;;;;;6108850;23;19952;-96
2023/05/18 09:22:34;;;;;;;;;;;15.70;75.30;;;;;;6259618;22;19914;-96
2023/05/18 09:25:21;;;;;;;;;;;15.70;75.30;;;;;;6260731;22;19985;-96
2023/05/18 09:28:13;;;;;;;;;;;15.70;75.30;;;;;;6260205;22;19910;-96
2023/05/18 09:30:57;;;;;;;;;;;15.70;75.00;;;;;;6288844;22;19903;-96
2023/05/18 09:33:43;;;;;;;;;;;15.70;75.10;;;;;;6239400;22;19907;-96
2023/05/18 09:39:46;;;;;;;;;;;15.80;75.30;;;;;;6272533;22;19907;-96
2023/05/18 09:42:39;;;;;;;;;;;15.80;74.60;;;;;;6291520;22;19911;-96
2023/05/18 09:45:22;;;;;;;;;;;15.80;74.50;;;;;;6266151;22;19888;-96
2023/05/18 09:48:25;;;;;;;;;;;15.80;74.70;;;;;;6265669;22;19891;-96
2023/05/18 09:51:33;;;;;;;;;;;15.80;74.40;;;;;;6297621;22;19903;-96
2023/05/18 09:54:46;;;;;;;;;;;15.80;74.30;;;;;;6289837;22;19913;-96
2023/05/18 09:57:42;;;;;;;;;;;15.70;74.20;;;;;;6270852;22;19939;-96
2023/05/18 10:00:27;;;;;;;;;;;15.80;74.10;;;;;;6265557;22;19908;-96
2023/05/18 10:02:58;;;;;;;;;;;15.80;74.40;;;;;;6290874;22;19986;-96
2023/05/18 10:05:26;;;;;;;;;;;15.80;74.10;;;;;;6262577;22;19951;-96
2023/05/18 10:07:53;;;;;;;;;;;15.80;73.80;;;;;;6264036;22;19910;-96
2023/05/18 10:10:42;;;;;;;;;;;15.70;73.60;;;;;;6242430;22;19945;-96
2023/05/18 10:13:34;;;;;;;;;;;15.70;73.40;;;;;;6295730;22;19911;-96
2023/05/18 10:16:13;;;;;;;;;;;15.70;73.40;;;;;;6241830;22;19994;-96
2023/05/18 10:19:11;;;;;;;;;;;;;;;;;;;;;
2023/05/18 10:22:07;;;;;;;;;;;15.70;73.40;;;;;;6220706;22;19922;-96
2023/05/18 10:24:55;;;;;;;;;;;15.70;73.40;;;;;;6269823;22;19911;-96
2023/05/18 10:27:25;;;;;;;;;;;15.60;73.50;;;;;;6120357;23;19932;-96
2023/05/18 10:29:53;;;;;;;;;;;15.60;73.80;;;;;;6096264;23;20323;-96
2023/05/18 10:37:47;;;;;;;;;;;15.50;73.70;;;;;;6323765;22;19909;-96
2023/05/18 10:49:16;;;;;;;;;;;15.40;74.30;;;;;;6328325;22;19923;-96
2023/05/18 10:52:14;;;;;;;;;;;15.40;73.60;;;;;;6229954;23;19904;-96
2023/05/18 11:06:34;;;;;;;;;;;15.30;74.10;;;;;;6148781;23;19956;-96
2023/05/18 11:09:42;;;;;;;;;;;15.30;73.90;;;;;;6115779;23;19910;-96
2023/05/18 11:25:43;;;;;;;;;;;15.10;74.60;;;;;;6316219;22;19915;-96
2023/05/18 11:28:32;;;;;;;;;;;15.10;75.20;;;;;;6289856;22;19989;-95
2023/05/18 11:36:52;;;;;;;;;;;15.10;74.50;;;;;;6327184;22;19903;-96
2023/05/18 11:39:57;;;;;;;;;;;15.00;74.40;;;;;;6234186;23;20035;-96
2023/05/18 11:43:01;;;;;;;;;;;15.10;75.00;;;;;;6141222;23;19992;-97
2023/05/18 11:45:51;;;;;;;;;;;15.10;74.50;;;;;;6180591;22;19919;-96
2023/05/18 11:48:48;;;;;;;;;;;15.10;74.60;;;;;;6302552;22;19911;-96
2023/05/18 11:58:01;;;;;;;;;;;15.00;75.00;;;;;;6117511;23;19909;-96
2023/05/18 12:01:00;;;;;;;;;;;;;;;;;;;;;
2023/05/18 12:03:57;;;;;;;;;;;15.00;75.20;;;;;;6119363;23;19910;-96
2023/05/18 12:06:47;;;;;;;;;;;15.00;75.30;;;;;;6113229;23;19920;-96
2023/05/18 12:09:38;;;;;;;;;;;14.90;75.40;;;;;;6089960;23;19954;-96
2023/05/18 12:30:47;;;;;;;;;;;14.90;75.60;;;;;;6203126;23;19959;-96
2023/05/18 12:33:43;;;;;;;;;;;14.90;75.60;;;;;;6115094;23;19911;-96
2023/05/18 12:36:43;;;;;;;;;;;14.90;75.60;;;;;;6139606;23;19932;-96
2023/05/18 12:46:09;;;;;;;;;;;14.80;75.40;;;;;;6080169;23;19910;-96
2023/05/18 12:48:56;;;;;;;;;;;14.90;75.80;;;;;;6076895;23;19897;-96
2023/05/18 12:55:20;;;;;;;;;;;15.20;76.10;;;;;;6076906;23;19965;-96
2023/05/18 12:58:25;;;;;;;;;;;14.80;75.80;;;;;;6148949;23;20277;-96
2023/05/18 13:01:16;;;;;;;;;;;15.00;75.90;;;;;;6158633;23;19905;-96
2023/05/18 13:04:21;;;;;;;;;;;14.80;75.80;;;;;;6165276;23;19931;-96
2023/05/18 13:07:09;;;;;;;;;;;14.80;75.90;;;;;;6160820;23;19993;-95
2023/05/18 13:09:56;;;;;;;;;;;14.80;75.70;;;;;;6139740;23;19905;-95
2023/05/18 13:12:38;;;;;;;;;;;14.80;75.60;;;;;;6161459;23;19908;-95
2023/05/18 13:15:36;;;;;;;;;;;14.80;75.60;;;;;;6163316;23;19916;-96
2023/05/18 13:18:05;;;;;;;;;;;14.90;75.60;;;;;;6110968;23;19929;-96
2023/05/18 13:20:38;;;;;;;;;;;14.70;75.60;;;;;;6183443;23;19928;-96
2023/05/18 13:23:07;;;;;;;;;;;14.80;75.70;;;;;;6169669;23;19916;-96
2023/05/18 13:25:56;;;;;;;;;;;14.70;75.70;;;;;;6145899;23;20354;-96
2023/05/18 13:29:02;;;;;;;;;;;14.70;75.70;;;;;;6198706;23;19904;-96
2023/05/18 13:31:54;;;;;;;;;;;14.70;75.70;;;;;;6172451;23;19948;-96
2023/05/18 13:34:41;;;;;;;;;;;14.70;75.80;;;;;;6170962;23;19911;-96
2023/05/18 13:37:16;;;;;;;;;;;14.70;75.80;;;;;;6198785;23;20392;-96
2023/05/18 13:39:55;;;;;;;;;;;14.70;75.80;;;;;;6181846;23;19926;-95
2023/05/18 13:42:40;;;;;;;;;;;14.70;75.80;;;;;;6206727;23;19899;-96
2023/05/18 13:45:29;;;;;;;;;;;14.70;75.80;;;;;;6232575;23;19910;-96
2023/05/18 13:48:00;;;;;;;;;;;14.70;75.80;;;;;;6262727;22;19910;-96
2023/05/18 13:50:28;;;;;;;;;;;14.70;75.70;;;;;;6272195;22;19911;-96
2023/05/18 13:53:17;;;;;;;;;;;14.70;75.80;;;;;;6320956;22;19938;-96
2023/05/18 13:55:44;;;;;;;;;;;14.70;75.80;;;;;;6319851;22;19986;-96
2023/05/18 13:58:16;;;;;;;;;;;14.70;75.90;;;;;;6231580;23;19918;-96
2023/05/18 14:00:45;;;;;;;;;;;14.60;75.90;;;;;;6229457;23;19954;-96
2023/05/18 14:03:32;;;;;;;;;;;14.70;75.80;;;;;;6204072;23;20391;-96
2023/05/18 14:06:19;;;;;;;;;;;14.60;75.80;;;;;;6230003;23;19903;-96
2023/05/18 14:08:45;;;;;;;;;;;14.60;75.70;;;;;;6227430;23;19985;-96
2023/05/18 14:11:37;;;;;;;;;;;14.60;75.60;;;;;;6208048;23;19892;-96
2023/05/18 14:14:23;;;;;;;;;;;14.60;75.60;;;;;;6233753;23;19928;-96
2023/05/18 14:17:03;;;;;;;;;;;14.60;75.60;;;;;;6232496;23;20312;-96
2023/05/18 14:20:06;;;;;;;;;;;14.60;75.90;;;;;;6205363;23;19956;-96
2023/05/18 14:23:01;;;;;;;;;;;14.60;75.90;;;;;;6225481;23;19908;-96
2023/05/18 14:25:38;;;;;;;;;;;14.60;76.10;;;;;;6225021;23;19987;-96
2023/05/18 14:28:25;;;;;;;;;;;14.60;76.10;;;;;;6173147;23;19912;-96
2023/05/18 14:30:58;;;;;;;;;;;14.60;76.10;;;;;;6194266;23;19931;-96
2023/05/18 14:33:43;;;;;;;;;;;14.60;76.20;;;;;;6173798;23;19912;-96
2023/05/18 14:36:21;;;;;;;;;;;14.60;76.30;;;;;;6245265;22;19910;-96
2023/05/18 14:38:52;;;;;;;;;;;14.60;76.20;;;;;;6261013;22;20248;-96
2023/05/18 14:41:41;;;;;;;;;;;14.60;76.30;;;;;;6235205;22;19911;-96
2023/05/18 14:44:27;;;;;;;;;;;14.60;76.50;;;;;;6260798;22;19911;-96
2023/05/18 14:47:16;;;;;;;;;;;14.60;76.50;;;;;;6259797;22;19950;-96
2023/05/18 14:50:02;;;;;;;;;;;14.60;76.60;;;;;;6259372;22;19903;-96
2023/05/18 14:52:28;;;;;;;;;;;14.60;76.70;;;;;;6289881;22;19910;-95
2023/05/18 14:55:28;;;;;;;;;;;14.60;76.80;;;;;;6264527;22;19911;-96
2023/05/18 14:58:06;;;;;;;;;;;14.60;76.70;;;;;;6313793;22;19917;-96
2023/05/18 15:00:32;;;;;;;;;;;14.50;76.70;;;;;;6288821;22;19959;-96
2023/05/18 15:03:32;;;;;;;;;;;14.60;76.70;;;;;;6267005;22;19911;-96
2023/05/18 15:06:04;;;;;;;;;;;14.50;76.60;;;;;;6297943;22;20313;-96
2023/05/18 15:08:50;;;;;;;;;;;14.50;76.60;;;;;;6295995;22;19906;-96
2023/05/18 15:11:39;;;;;;;;;;;14.50;76.70;;;;;;6294625;22;19910;-96
2023/05/18 15:14:25;;;;;;;;;;;14.50;76.60;;;;;;6226464;23;19939;-96
2023/05/18 15:17:12;;;;;;;;;;;14.50;76.70;;;;;;6231241;23;19904;-96
2023/05/18 15:19:59;;;;;;;;;;;14.50;76.60;;;;;;6199372;23;19935;-96
2023/05/18 15:23:01;;;;;;;;;;;;;;;;;;;;;
2023/05/18 15:25:38;;;;;;;;;;;14.50;76.70;;;;;;6225580;23;19915;-96
2023/05/18 15:28:12;;;;;;;;;;;14.50;76.70;;;;;;6204132;23;19914;-96
2023/05/18 15:30:38;;;;;;;;;;;14.50;76.70;;;;;;6176291;23;19908;-96
2023/05/18 15:33:05;;;;;;;;;;;14.50;76.70;;;;;;6174583;23;19922;-96
2023/05/18 15:35:50;;;;;;;;;;;14.50;76.80;;;;;;6175416;23;19914;-95
2023/05/18 15:38:37;;;;;;;;;;;14.50;76.90;;;;;;6199901;23;19947;-96
2023/05/18 15:41:12;;;;;;;;;;;14.50;76.90;;;;;;6201444;23;19904;-96
2023/05/18 15:43:42;;;;;;;;;;;14.50;77.00;;;;;;6199738;23;19915;-96
2023/05/18 15:46:27;;;;;;;;;;;14.50;77.10;;;;;;6265400;22;19907;-96
2023/05/18 15:48:56;;;;;;;;;;;14.50;77.00;;;;;;6295779;22;19907;-96
2023/05/18 15:51:24;;;;;;;;;;;14.50;76.90;;;;;;6274513;22;19914;-96
2023/05/18 15:54:24;;;;;;;;;;;14.50;77.10;;;;;;6301608;22;19895;-96
2023/05/18 15:57:21;;;;;;;;;;;14.50;77.00;;;;;;6297958;22;19943;-96
2023/05/18 16:00:03;;;;;;;;;;;14.40;76.80;;;;;;6316828;22;19914;-96
2023/05/18 16:02:54;;;;;;;;;;;14.40;76.80;;;;;;6297262;22;19929;-96
2023/05/18 16:05:43;;;;;;;;;;;14.40;76.80;;;;;;6321397;22;19910;-96
2023/05/18 16:08:39;;;;;;;;;;;14.50;76.80;;;;;;6296334;22;20384;-96
2023/05/18 16:11:24;;;;;;;;;;;14.40;76.70;;;;;;6292264;22;20217;-96
2023/05/18 16:14:17;;;;;;;;;;;14.40;76.70;;;;;;6319271;22;19926;-96
2023/05/18 16:16:53;;;;;;;;;;;14.40;76.80;;;;;;6320170;22;19982;-96
2023/05/18 16:19:19;;;;;;;;;;;14.40;76.90;;;;;;6266639;22;19911;-96
2023/05/18 16:22:07;;;;;;;;;;;14.40;76.90;;;;;;6266890;22;19907;-96
2023/05/18 16:24:57;;;;;;;;;;;14.40;76.90;;;;;;6265499;22;20291;-96
2023/05/18 16:27:46;;;;;;;;;;;14.40;77.10;;;;;;6315190;22;19938;-96
2023/05/18 16:30:32;;;;;;;;;;;14.40;77.20;;;;;;6290764;22;19929;-96
2023/05/18 16:33:22;;;;;;;;;;;14.60;77.50;;;;;;6316444;22;19919;-96
2023/05/18 16:36:37;;;;;;;;;;;14.40;77.40;;;;;;6316487;22;19906;-96
2023/05/18 16:39:25;;;;;;;;;;;14.40;77.50;;;;;;6289991;22;19942;-96